sensor_id;sensor_type;location;lat;lon;timestamp;P1;durP1;ratioP1;P2;durP2;ratioP2
9007;SDS011;62813;51.424;6.762;2024-01-11T00:00:34;30.77;;;18.30;;
9007;SDS011;62813;51.424;6.762;2024-01-11T00:03:00;33.70;;;18.63;;
9007;SDS011;62813;51.424;6.762;2024-01-11T00:05:28;35.23;;;19.07;;
9007;SDS011;62813;51.424;6.762;2024-01-11T00:07:55;39.37;;;20.30;;
9007;SDS011;62813;51.424;6.762;2024-01-11T00:10:22;39.23;;;21.03;;
9007;SDS011;62813;51.424;6.762;2024-01-11T00:12:49;34.87;;;19.97;;
9007;SDS011;62813;51.424;6.762;2024-01-11T00:15:16;36.70;;;18.93;;
9007;SDS011;62813;51.424;6.762;2024-01-11T00:17:42;32.70;;;19.10;;
9007;SDS011;62813;51.424;6.762;2024-01-11T00:20:09;32.47;;;18.87;;
9007;SDS011;62813;51.424;6.762;2024-01-11T00:22:37;33.70;;;19.10;;
9007;SDS011;62813;51.424;6.762;2024-01-11T00:25:04;35.17;;;18.87;;
9007;SDS011;62813;51.424;6.762;2024-01-11T00:27:31;43.03;;;20.43;;
9007;SDS011;62813;51.424;6.762;2024-01-11T00:29:58;33.97;;;19.40;;
9007;SDS011;62813;51.424;6.762;2024-01-11T00:32:25;34.37;;;19.20;;
9007;SDS011;62813;51.424;6.762;2024-01-11T00:34:52;36.73;;;19.10;;
9007;SDS011;62813;51.424;6.762;2024-01-11T00:37:19;37.60;;;20.30;;
9007;SDS011;62813;51.424;6.762;2024-01-11T00:39:46;38.13;;;19.07;;
9007;SDS011;62813;51.424;6.762;2024-01-11T00:42:12;35.83;;;19.03;;
9007;SDS011;62813;51.424;6.762;2024-01-11T00:44:39;35.20;;;20.47;;
9007;SDS011;62813;51.424;6.762;2024-01-11T00:47:07;36.70;;;19.90;;
9007;SDS011;62813;51.424;6.762;2024-01-11T00:49:33;35.00;;;20.10;;
9007;SDS011;62813;51.424;6.762;2024-01-11T00:52:00;36.23;;;20.17;;
9007;SDS011;62813;51.424;6.762;2024-01-11T00:54:27;35.13;;;19.17;;
9007;SDS011;62813;51.424;6.762;2024-01-11T00:56:54;36.07;;;19.53;;
9007;SDS011;62813;51.424;6.762;2024-01-11T00:59:21;30.93;;;20.10;;
9007;SDS011;62813;51.424;6.762;2024-01-11T01:01:48;37.83;;;20.23;;
9007;SDS011;62813;51.424;6.762;2024-01-11T01:04:15;34.33;;;19.33;;
9007;SDS011;62813;51.424;6.762;2024-01-11T01:06:43;34.70;;;19.97;;
9007;SDS011;62813;51.424;6.762;2024-01-11T01:09:10;32.37;;;19.03;;
9007;SDS011;62813;51.424;6.762;2024-01-11T01:11:36;35.63;;;19.77;;
9007;SDS011;62813;51.424;6.762;2024-01-11T01:14:04;37.37;;;19.80;;
9007;SDS011;62813;51.424;6.762;2024-01-11T01:16:31;33.27;;;18.97;;
9007;SDS011;62813;51.424;6.762;2024-01-11T01:18:58;36.57;;;19.67;;
9007;SDS011;62813;51.424;6.762;2024-01-11T01:21:25;37.77;;;20.93;;
9007;SDS011;62813;51.424;6.762;2024-01-11T01:23:52;36.77;;;20.20;;
9007;SDS011;62813;51.424;6.762;2024-01-11T01:26:21;34.33;;;20.60;;
9007;SDS011;62813;51.424;6.762;2024-01-11T01:28:48;34.77;;;19.77;;
9007;SDS011;62813;51.424;6.762;2024-01-11T01:31:15;38.43;;;20.27;;
9007;SDS011;62813;51.424;6.762;2024-01-11T01:33:42;36.93;;;20.73;;
9007;SDS011;62813;51.424;6.762;2024-01-11T01:36:12;39.63;;;20.43;;
9007;SDS011;62813;51.424;6.762;2024-01-11T01:38:38;40.90;;;20.07;;
9007;SDS011;62813;51.424;6.762;2024-01-11T01:41:05;36.67;;;20.17;;
9007;SDS011;62813;51.424;6.762;2024-01-11T01:43:32;38.37;;;19.77;;
9007;SDS011;62813;51.424;6.762;2024-01-11T01:45:59;37.10;;;20.33;;
9007;SDS011;62813;51.424;6.762;2024-01-11T01:48:26;36.80;;;20.47;;
9007;SDS011;62813;51.424;6.762;2024-01-11T01:50:54;39.37;;;21.50;;
9007;SDS011;62813;51.424;6.762;2024-01-11T01:53:22;40.63;;;20.73;;
9007;SDS011;62813;51.424;6.762;2024-01-11T01:55:51;36.10;;;20.47;;
9007;SDS011;62813;51.424;6.762;2024-01-11T01:58:19;37.70;;;20.57;;
9007;SDS011;62813;51.424;6.762;2024-01-11T02:00:46;37.67;;;21.17;;
9007;SDS011;62813;51.424;6.762;2024-01-11T02:03:17;37.23;;;21.70;;
9007;SDS011;62813;51.424;6.762;2024-01-11T02:05:44;42.97;;;21.07;;
9007;SDS011;62813;51.424;6.762;2024-01-11T02:08:12;38.23;;;21.03;;
9007;SDS011;62813;51.424;6.762;2024-01-11T02:10:43;39.50;;;21.33;;
9007;SDS011;62813;51.424;6.762;2024-01-11T02:13:11;37.73;;;19.93;;
9007;SDS011;62813;51.424;6.762;2024-01-11T02:15:39;39.50;;;20.67;;
9007;SDS011;62813;51.424;6.762;2024-01-11T02:18:06;37.57;;;21.27;;
9007;SDS011;62813;51.424;6.762;2024-01-11T02:20:33;39.20;;;22.23;;
9007;SDS011;62813;51.424;6.762;2024-01-11T02:23:05;41.70;;;21.80;;
9007;SDS011;62813;51.424;6.762;2024-01-11T02:25:34;39.53;;;21.57;;
9007;SDS011;62813;51.424;6.762;2024-01-11T02:28:01;44.87;;;21.07;;
9007;SDS011;62813;51.424;6.762;2024-01-11T02:30:27;45.00;;;22.53;;
9007;SDS011;62813;51.424;6.762;2024-01-11T02:32:54;43.77;;;21.93;;
9007;SDS011;62813;51.424;6.762;2024-01-11T02:35:22;39.97;;;21.90;;
9007;SDS011;62813;51.424;6.762;2024-01-11T02:37:49;40.87;;;21.57;;
9007;SDS011;62813;51.424;6.762;2024-01-11T02:40:16;40.73;;;21.57;;
9007;SDS011;62813;51.424;6.762;2024-01-11T02:42:45;41.57;;;23.37;;
9007;SDS011;62813;51.424;6.762;2024-01-11T02:45:13;42.30;;;23.37;;
9007;SDS011;62813;51.424;6.762;2024-01-11T02:47:39;32.47;;;19.93;;
9007;SDS011;62813;51.424;6.762;2024-01-11T02:50:07;42.73;;;22.63;;
9007;SDS011;62813;51.424;6.762;2024-01-11T02:52:34;41.47;;;23.50;;
9007;SDS011;62813;51.424;6.762;2024-01-11T02:55:01;39.60;;;22.20;;
9007;SDS011;62813;51.424;6.762;2024-01-11T02:57:28;42.67;;;22.60;;
9007;SDS011;62813;51.424;6.762;2024-01-11T02:59:55;41.63;;;22.33;;
9007;SDS011;62813;51.424;6.762;2024-01-11T03:02:22;40.40;;;20.97;;
9007;SDS011;62813;51.424;6.762;2024-01-11T03:04:49;36.40;;;21.47;;
9007;SDS011;62813;51.424;6.762;2024-01-11T03:07:15;43.13;;;21.97;;
9007;SDS011;62813;51.424;6.762;2024-01-11T03:09:42;43.70;;;22.80;;
9007;SDS011;62813;51.424;6.762;2024-01-11T03:12:09;41.97;;;22.50;;
9007;SDS011;62813;51.424;6.762;2024-01-11T03:14:36;42.80;;;23.70;;
9007;SDS011;62813;51.424;6.762;2024-01-11T03:17:03;42.97;;;23.57;;
9007;SDS011;62813;51.424;6.762;2024-01-11T03:19:31;42.27;;;21.57;;
9007;SDS011;62813;51.424;6.762;2024-01-11T03:21:58;43.20;;;21.83;;
9007;SDS011;62813;51.424;6.762;2024-01-11T03:24:24;37.43;;;20.77;;
9007;SDS011;62813;51.424;6.762;2024-01-11T03:26:51;39.50;;;21.40;;
9007;SDS011;62813;51.424;6.762;2024-01-11T03:29:18;35.13;;;19.60;;
9007;SDS011;62813;51.424;6.762;2024-01-11T03:31:45;39.80;;;20.97;;
9007;SDS011;62813;51.424;6.762;2024-01-11T03:34:11;49.63;;;27.03;;
9007;SDS011;62813;51.424;6.762;2024-01-11T03:36:39;48.30;;;26.10;;
9007;SDS011;62813;51.424;6.762;2024-01-11T03:39:06;42.47;;;22.13;;
9007;SDS011;62813;51.424;6.762;2024-01-11T03:41:33;44.40;;;23.27;;
9007;SDS011;62813;51.424;6.762;2024-01-11T03:44:00;40.47;;;22.60;;
9007;SDS011;62813;51.424;6.762;2024-01-11T03:46:27;38.57;;;21.47;;
9007;SDS011;62813;51.424;6.762;2024-01-11T03:48:54;37.50;;;20.67;;
9007;SDS011;62813;51.424;6.762;2024-01-11T03:51:22;44.37;;;21.73;;
9007;SDS011;62813;51.424;6.762;2024-01-11T03:53:49;43.93;;;23.50;;
9007;SDS011;62813;51.424;6.762;2024-01-11T03:56:16;35.13;;;20.97;;
9007;SDS011;62813;51.424;6.762;2024-01-11T03:58:43;41.17;;;22.73;;
9007;SDS011;62813;51.424;6.762;2024-01-11T04:01:11;41.83;;;20.47;;
9007;SDS011;62813;51.424;6.762;2024-01-11T04:03:38;41.13;;;22.27;;
9007;SDS011;62813;51.424;6.762;2024-01-11T04:06:05;37.37;;;21.07;;
9007;SDS011;62813;51.424;6.762;2024-01-11T04:08:33;43.43;;;21.37;;
9007;SDS011;62813;51.424;6.762;2024-01-11T04:11:03;40.37;;;21.73;;
9007;SDS011;62813;51.424;6.762;2024-01-11T04:13:33;36.13;;;20.87;;
9007;SDS011;62813;51.424;6.762;2024-01-11T04:18:34;37.33;;;20.83;;
9007;SDS011;62813;51.424;6.762;2024-01-11T04:21:01;38.37;;;20.97;;
9007;SDS011;62813;51.424;6.762;2024-01-11T04:23:28;39.40;;;21.40;;
9007;SDS011;62813;51.424;6.762;2024-01-11T04:25:55;36.63;;;21.03;;
9007;SDS011;62813;51.424;6.762;2024-01-11T04:28:21;42.50;;;21.93;;
9007;SDS011;62813;51.424;6.762;2024-01-11T04:30:49;37.80;;;20.40;;
9007;SDS011;62813;51.424;6.762;2024-01-11T04:33:16;38.30;;;20.30;;
9007;SDS011;62813;51.424;6.762;2024-01-11T04:35:42;39.63;;;21.37;;
9007;SDS011;62813;51.424;6.762;2024-01-11T04:38:10;40.03;;;21.10;;
9007;SDS011;62813;51.424;6.762;2024-01-11T04:40:37;39.80;;;20.80;;
9007;SDS011;62813;51.424;6.762;2024-01-11T04:43:04;39.67;;;22.57;;
9007;SDS011;62813;51.424;6.762;2024-01-11T04:45:30;44.63;;;21.93;;
9007;SDS011;62813;51.424;6.762;2024-01-11T04:47:57;43.03;;;21.73;;
9007;SDS011;62813;51.424;6.762;2024-01-11T04:50:24;37.90;;;21.60;;
9007;SDS011;62813;51.424;6.762;2024-01-11T04:52:51;38.83;;;21.27;;
9007;SDS011;62813;51.424;6.762;2024-01-11T04:55:18;39.97;;;21.73;;
9007;SDS011;62813;51.424;6.762;2024-01-11T04:57:45;50.23;;;26.37;;
9007;SDS011;62813;51.424;6.762;2024-01-11T05:00:12;58.70;;;31.73;;
9007;SDS011;62813;51.424;6.762;2024-01-11T05:02:39;46.80;;;24.70;;
9007;SDS011;62813;51.424;6.762;2024-01-11T05:05:06;43.47;;;23.87;;
9007;SDS011;62813;51.424;6.762;2024-01-11T05:07:32;40.73;;;22.87;;
9007;SDS011;62813;51.424;6.762;2024-01-11T05:10:01;50.77;;;26.60;;
9007;SDS011;62813;51.424;6.762;2024-01-11T05:12:27;39.23;;;21.83;;
9007;SDS011;62813;51.424;6.762;2024-01-11T05:14:54;40.37;;;21.23;;
9007;SDS011;62813;51.424;6.762;2024-01-11T05:17:21;39.83;;;22.33;;
9007;SDS011;62813;51.424;6.762;2024-01-11T05:19:47;38.93;;;21.57;;
9007;SDS011;62813;51.424;6.762;2024-01-11T05:22:14;42.03;;;21.33;;
9007;SDS011;62813;51.424;6.762;2024-01-11T05:24:41;39.73;;;22.17;;
9007;SDS011;62813;51.424;6.762;2024-01-11T05:27:08;36.63;;;21.70;;
9007;SDS011;62813;51.424;6.762;2024-01-11T05:29:35;39.97;;;21.73;;
9007;SDS011;62813;51.424;6.762;2024-01-11T05:32:02;40.80;;;22.10;;
9007;SDS011;62813;51.424;6.762;2024-01-11T05:34:29;45.77;;;24.37;;
9007;SDS011;62813;51.424;6.762;2024-01-11T05:36:56;44.43;;;23.57;;
9007;SDS011;62813;51.424;6.762;2024-01-11T05:39:26;37.13;;;20.80;;
9007;SDS011;62813;51.424;6.762;2024-01-11T05:41:52;42.20;;;22.30;;
9007;SDS011;62813;51.424;6.762;2024-01-11T05:44:19;42.77;;;23.20;;
9007;SDS011;62813;51.424;6.762;2024-01-11T05:46:46;39.20;;;21.67;;
9007;SDS011;62813;51.424;6.762;2024-01-11T05:49:13;40.03;;;21.90;;
9007;SDS011;62813;51.424;6.762;2024-01-11T05:51:40;41.87;;;22.10;;
9007;SDS011;62813;51.424;6.762;2024-01-11T05:54:07;35.40;;;20.27;;
9007;SDS011;62813;51.424;6.762;2024-01-11T05:56:33;38.77;;;21.33;;
9007;SDS011;62813;51.424;6.762;2024-01-11T05:59:00;42.50;;;23.13;;
9007;SDS011;62813;51.424;6.762;2024-01-11T06:01:27;46.37;;;22.53;;
9007;SDS011;62813;51.424;6.762;2024-01-11T06:03:54;40.37;;;21.97;;
9007;SDS011;62813;51.424;6.762;2024-01-11T06:06:21;40.47;;;20.93;;
9007;SDS011;62813;51.424;6.762;2024-01-11T06:08:48;40.00;;;20.20;;
9007;SDS011;62813;51.424;6.762;2024-01-11T06:11:15;46.40;;;23.27;;
9007;SDS011;62813;51.424;6.762;2024-01-11T06:13:45;42.00;;;21.37;;
9007;SDS011;62813;51.424;6.762;2024-01-11T06:16:12;42.27;;;22.03;;
9007;SDS011;62813;51.424;6.762;2024-01-11T06:18:39;40.50;;;21.23;;
9007;SDS011;62813;51.424;6.762;2024-01-11T06:21:06;42.97;;;22.03;;
9007;SDS011;62813;51.424;6.762;2024-01-11T06:23:32;36.30;;;20.67;;
9007;SDS011;62813;51.424;6.762;2024-01-11T06:25:59;39.53;;;20.63;;
9007;SDS011;62813;51.424;6.762;2024-01-11T06:28:26;37.23;;;20.40;;
9007;SDS011;62813;51.424;6.762;2024-01-11T06:30:53;40.83;;;21.87;;
9007;SDS011;62813;51.424;6.762;2024-01-11T06:33:20;38.17;;;21.53;;
9007;SDS011;62813;51.424;6.762;2024-01-11T06:35:47;41.57;;;21.93;;
9007;SDS011;62813;51.424;6.762;2024-01-11T06:38:14;38.87;;;21.33;;
9007;SDS011;62813;51.424;6.762;2024-01-11T06:40:41;43.93;;;22.33;;
9007;SDS011;62813;51.424;6.762;2024-01-11T06:43:08;40.33;;;21.00;;
9007;SDS011;62813;51.424;6.762;2024-01-11T06:45:34;38.87;;;20.93;;
9007;SDS011;62813;51.424;6.762;2024-01-11T06:48:01;37.50;;;21.60;;
9007;SDS011;62813;51.424;6.762;2024-01-11T06:50:29;37.50;;;20.57;;
9007;SDS011;62813;51.424;6.762;2024-01-11T06:52:55;39.53;;;22.13;;
9007;SDS011;62813;51.424;6.762;2024-01-11T06:55:22;40.00;;;22.63;;
9007;SDS011;62813;51.424;6.762;2024-01-11T06:57:49;48.07;;;22.30;;
9007;SDS011;62813;51.424;6.762;2024-01-11T07:00:16;47.03;;;22.37;;
9007;SDS011;62813;51.424;6.762;2024-01-11T07:02:43;42.00;;;21.17;;
9007;SDS011;62813;51.424;6.762;2024-01-11T07:05:09;40.97;;;22.50;;
9007;SDS011;62813;51.424;6.762;2024-01-11T07:07:37;39.67;;;21.23;;
9007;SDS011;62813;51.424;6.762;2024-01-11T07:10:03;42.57;;;22.37;;
9007;SDS011;62813;51.424;6.762;2024-01-11T07:12:32;41.33;;;21.97;;
9007;SDS011;62813;51.424;6.762;2024-01-11T07:14:59;40.13;;;21.20;;
9007;SDS011;62813;51.424;6.762;2024-01-11T07:17:26;43.50;;;22.60;;
9007;SDS011;62813;51.424;6.762;2024-01-11T07:19:55;38.57;;;21.20;;
9007;SDS011;62813;51.424;6.762;2024-01-11T07:22:22;42.23;;;21.27;;
9007;SDS011;62813;51.424;6.762;2024-01-11T07:24:48;47.00;;;23.33;;
9007;SDS011;62813;51.424;6.762;2024-01-11T07:27:15;39.60;;;21.63;;
9007;SDS011;62813;51.424;6.762;2024-01-11T07:29:42;41.73;;;22.87;;
9007;SDS011;62813;51.424;6.762;2024-01-11T07:32:11;42.60;;;22.63;;
9007;SDS011;62813;51.424;6.762;2024-01-11T07:34:38;40.37;;;21.97;;
9007;SDS011;62813;51.424;6.762;2024-01-11T07:37:05;57.60;;;26.97;;
9007;SDS011;62813;51.424;6.762;2024-01-11T07:39:31;41.40;;;21.83;;
9007;SDS011;62813;51.424;6.762;2024-01-11T07:41:58;40.87;;;21.77;;
9007;SDS011;62813;51.424;6.762;2024-01-11T07:44:25;42.50;;;22.20;;
9007;SDS011;62813;51.424;6.762;2024-01-11T07:46:51;40.40;;;22.73;;
9007;SDS011;62813;51.424;6.762;2024-01-11T07:49:21;42.10;;;21.97;;
9007;SDS011;62813;51.424;6.762;2024-01-11T07:51:48;42.03;;;23.33;;
9007;SDS011;62813;51.424;6.762;2024-01-11T07:54:15;41.27;;;22.47;;
9007;SDS011;62813;51.424;6.762;2024-01-11T07:56:42;47.07;;;23.47;;
9007;SDS011;62813;51.424;6.762;2024-01-11T07:59:09;42.43;;;24.00;;
9007;SDS011;62813;51.424;6.762;2024-01-11T08:01:41;44.13;;;22.23;;
9007;SDS011;62813;51.424;6.762;2024-01-11T08:04:09;45.93;;;23.43;;
9007;SDS011;62813;51.424;6.762;2024-01-11T08:06:35;45.13;;;23.27;;
9007;SDS011;62813;51.424;6.762;2024-01-11T08:09:02;43.07;;;23.40;;
9007;SDS011;62813;51.424;6.762;2024-01-11T08:11:31;43.43;;;23.70;;
9007;SDS011;62813;51.424;6.762;2024-01-11T08:14:02;47.30;;;23.20;;
9007;SDS011;62813;51.424;6.762;2024-01-11T08:16:32;50.93;;;23.77;;
9007;SDS011;62813;51.424;6.762;2024-01-11T08:18:59;51.53;;;23.00;;
9007;SDS011;62813;51.424;6.762;2024-01-11T08:21:27;49.47;;;24.57;;
9007;SDS011;62813;51.424;6.762;2024-01-11T08:23:55;44.03;;;24.13;;
9007;SDS011;62813;51.424;6.762;2024-01-11T08:26:28;38.63;;;23.83;;
9007;SDS011;62813;51.424;6.762;2024-01-11T08:28:56;42.37;;;23.90;;
9007;SDS011;62813;51.424;6.762;2024-01-11T08:31:23;43.80;;;23.97;;
9007;SDS011;62813;51.424;6.762;2024-01-11T08:33:51;41.83;;;22.83;;
9007;SDS011;62813;51.424;6.762;2024-01-11T08:36:18;41.90;;;22.57;;
9007;SDS011;62813;51.424;6.762;2024-01-11T08:38:44;43.53;;;23.03;;
9007;SDS011;62813;51.424;6.762;2024-01-11T08:41:11;43.20;;;23.37;;
9007;SDS011;62813;51.424;6.762;2024-01-11T08:43:38;44.97;;;23.63;;
9007;SDS011;62813;51.424;6.762;2024-01-11T08:46:05;41.07;;;22.27;;
9007;SDS011;62813;51.424;6.762;2024-01-11T08:48:32;45.80;;;23.90;;
9007;SDS011;62813;51.424;6.762;2024-01-11T08:51:00;41.53;;;22.10;;
9007;SDS011;62813;51.424;6.762;2024-01-11T08:53:27;43.50;;;22.93;;
9007;SDS011;62813;51.424;6.762;2024-01-11T08:55:54;43.57;;;23.20;;
9007;SDS011;62813;51.424;6.762;2024-01-11T08:58:20;46.30;;;23.30;;
9007;SDS011;62813;51.424;6.762;2024-01-11T09:00:47;48.83;;;25.90;;
9007;SDS011;62813;51.424;6.762;2024-01-11T09:03:14;41.37;;;23.63;;
9007;SDS011;62813;51.424;6.762;2024-01-11T09:05:43;41.50;;;23.67;;
9007;SDS011;62813;51.424;6.762;2024-01-11T09:08:10;46.27;;;24.00;;
9007;SDS011;62813;51.424;6.762;2024-01-11T09:10:37;47.77;;;23.10;;
9007;SDS011;62813;51.424;6.762;2024-01-11T09:13:04;43.00;;;23.80;;
9007;SDS011;62813;51.424;6.762;2024-01-11T09:15:30;46.57;;;22.50;;
9007;SDS011;62813;51.424;6.762;2024-01-11T09:17:58;44.40;;;22.77;;
9007;SDS011;62813;51.424;6.762;2024-01-11T09:20:27;44.57;;;23.03;;
9007;SDS011;62813;51.424;6.762;2024-01-11T09:22:54;40.43;;;22.50;;
9007;SDS011;62813;51.424;6.762;2024-01-11T09:25:20;43.03;;;24.07;;
9007;SDS011;62813;51.424;6.762;2024-01-11T09:27:47;40.10;;;23.17;;
9007;SDS011;62813;51.424;6.762;2024-01-11T09:30:14;43.10;;;23.60;;
9007;SDS011;62813;51.424;6.762;2024-01-11T09:32:41;41.10;;;22.83;;
9007;SDS011;62813;51.424;6.762;2024-01-11T09:35:08;40.20;;;22.87;;
9007;SDS011;62813;51.424;6.762;2024-01-11T09:37:39;42.10;;;22.87;;
9007;SDS011;62813;51.424;6.762;2024-01-11T09:40:06;42.80;;;23.33;;
9007;SDS011;62813;51.424;6.762;2024-01-11T09:42:37;46.13;;;23.70;;
9007;SDS011;62813;51.424;6.762;2024-01-11T09:45:14;44.57;;;24.87;;
9007;SDS011;62813;51.424;6.762;2024-01-11T09:47:44;43.97;;;24.33;;
9007;SDS011;62813;51.424;6.762;2024-01-11T09:50:15;46.73;;;26.60;;
9007;SDS011;62813;51.424;6.762;2024-01-11T09:52:45;51.13;;;28.70;;
9007;SDS011;62813;51.424;6.762;2024-01-11T09:55:14;46.13;;;24.23;;
9007;SDS011;62813;51.424;6.762;2024-01-11T09:57:41;42.27;;;23.27;;
9007;SDS011;62813;51.424;6.762;2024-01-11T10:00:13;42.17;;;23.60;;
9007;SDS011;62813;51.424;6.762;2024-01-11T10:02:42;39.00;;;23.07;;
9007;SDS011;62813;51.424;6.762;2024-01-11T10:05:09;42.47;;;23.47;;
9007;SDS011;62813;51.424;6.762;2024-01-11T10:07:37;41.47;;;24.53;;
9007;SDS011;62813;51.424;6.762;2024-01-11T10:10:04;40.23;;;23.07;;
9007;SDS011;62813;51.424;6.762;2024-01-11T10:12:32;43.23;;;23.73;;
9007;SDS011;62813;51.424;6.762;2024-01-11T10:15:05;52.57;;;24.90;;
9007;SDS011;62813;51.424;6.762;2024-01-11T10:17:35;42.17;;;23.63;;
9007;SDS011;62813;51.424;6.762;2024-01-11T10:20:11;41.87;;;24.60;;
9007;SDS011;62813;51.424;6.762;2024-01-11T10:22:41;44.63;;;23.43;;
9007;SDS011;62813;51.424;6.762;2024-01-11T10:25:14;44.57;;;21.90;;
9007;SDS011;62813;51.424;6.762;2024-01-11T10:27:42;44.17;;;23.83;;
9007;SDS011;62813;51.424;6.762;2024-01-11T10:30:14;40.20;;;24.43;;
9007;SDS011;62813;51.424;6.762;2024-01-11T10:32:44;41.37;;;23.27;;
9007;SDS011;62813;51.424;6.762;2024-01-11T10:35:11;44.23;;;23.70;;
9007;SDS011;62813;51.424;6.762;2024-01-11T10:37:38;43.87;;;24.47;;
9007;SDS011;62813;51.424;6.762;2024-01-11T10:40:05;46.07;;;24.43;;
9007;SDS011;62813;51.424;6.762;2024-01-11T10:42:43;48.03;;;23.60;;
9007;SDS011;62813;51.424;6.762;2024-01-11T10:45:15;47.50;;;24.43;;
9007;SDS011;62813;51.424;6.762;2024-01-11T10:47:53;44.67;;;23.53;;
9007;SDS011;62813;51.424;6.762;2024-01-11T10:50:26;41.00;;;22.50;;
9007;SDS011;62813;51.424;6.762;2024-01-11T10:55:30;49.83;;;23.77;;
9007;SDS011;62813;51.424;6.762;2024-01-11T10:57:59;42.27;;;22.50;;
9007;SDS011;62813;51.424;6.762;2024-01-11T11:00:28;43.70;;;24.37;;
9007;SDS011;62813;51.424;6.762;2024-01-11T11:02:56;44.00;;;23.73;;
9007;SDS011;62813;51.424;6.762;2024-01-11T11:05:28;42.40;;;23.20;;
9007;SDS011;62813;51.424;6.762;2024-01-11T11:07:57;43.83;;;24.57;;
9007;SDS011;62813;51.424;6.762;2024-01-11T11:10:28;44.97;;;23.20;;
9007;SDS011;62813;51.424;6.762;2024-01-11T11:12:57;40.47;;;21.80;;
9007;SDS011;62813;51.424;6.762;2024-01-11T11:15:29;44.13;;;23.57;;
9007;SDS011;62813;51.424;6.762;2024-01-11T11:17:57;40.30;;;22.93;;
9007;SDS011;62813;51.424;6.762;2024-01-11T11:20:24;41.33;;;22.20;;
9007;SDS011;62813;51.424;6.762;2024-01-11T11:23:07;40.40;;;21.83;;
9007;SDS011;62813;51.424;6.762;2024-01-11T11:25:36;36.60;;;21.70;;
9007;SDS011;62813;51.424;6.762;2024-01-11T11:28:03;38.30;;;21.57;;
9007;SDS011;62813;51.424;6.762;2024-01-11T11:30:31;36.47;;;21.00;;
9007;SDS011;62813;51.424;6.762;2024-01-11T11:35:58;36.77;;;20.20;;
9007;SDS011;62813;51.424;6.762;2024-01-11T11:38:26;38.10;;;21.10;;
9007;SDS011;62813;51.424;6.762;2024-01-11T11:40:58;38.17;;;20.70;;
9007;SDS011;62813;51.424;6.762;2024-01-11T11:43:26;38.13;;;21.17;;
9007;SDS011;62813;51.424;6.762;2024-01-11T11:45:54;40.47;;;20.33;;
9007;SDS011;62813;51.424;6.762;2024-01-11T11:53:35;34.33;;;21.00;;
9007;SDS011;62813;51.424;6.762;2024-01-11T11:56:02;43.57;;;22.53;;
9007;SDS011;62813;51.424;6.762;2024-01-11T11:58:30;34.00;;;20.80;;
9007;SDS011;62813;51.424;6.762;2024-01-11T12:00:58;36.43;;;19.83;;
9007;SDS011;62813;51.424;6.762;2024-01-11T12:03:30;39.80;;;21.83;;
9007;SDS011;62813;51.424;6.762;2024-01-11T12:05:58;44.27;;;21.60;;
9007;SDS011;62813;51.424;6.762;2024-01-11T12:08:26;40.73;;;21.20;;
9007;SDS011;62813;51.424;6.762;2024-01-11T12:10:53;35.93;;;20.97;;
9007;SDS011;62813;51.424;6.762;2024-01-11T12:13:21;35.67;;;20.10;;
9007;SDS011;62813;51.424;6.762;2024-01-11T12:15:48;35.47;;;20.03;;
9007;SDS011;62813;51.424;6.762;2024-01-11T12:18:15;36.50;;;19.60;;
9007;SDS011;62813;51.424;6.762;2024-01-11T12:20:42;39.20;;;21.63;;
9007;SDS011;62813;51.424;6.762;2024-01-11T12:23:09;37.17;;;20.57;;
9007;SDS011;62813;51.424;6.762;2024-01-11T12:25:36;32.07;;;18.37;;
9007;SDS011;62813;51.424;6.762;2024-01-11T12:28:03;38.67;;;20.87;;
9007;SDS011;62813;51.424;6.762;2024-01-11T12:30:32;37.90;;;19.20;;
9007;SDS011;62813;51.424;6.762;2024-01-11T12:33:00;30.23;;;17.97;;
9007;SDS011;62813;51.424;6.762;2024-01-11T12:35:30;30.93;;;18.67;;
9007;SDS011;62813;51.424;6.762;2024-01-11T12:38:01;34.43;;;18.33;;
9007;SDS011;62813;51.424;6.762;2024-01-11T12:40:33;29.63;;;18.27;;
9007;SDS011;62813;51.424;6.762;2024-01-11T12:43:04;28.53;;;17.40;;
9007;SDS011;62813;51.424;6.762;2024-01-11T12:45:32;29.53;;;18.20;;
9007;SDS011;62813;51.424;6.762;2024-01-11T12:47:59;31.77;;;17.30;;
9007;SDS011;62813;51.424;6.762;2024-01-11T12:50:27;34.60;;;17.93;;
9007;SDS011;62813;51.424;6.762;2024-01-11T12:53:04;29.33;;;17.50;;
9007;SDS011;62813;51.424;6.762;2024-01-11T12:55:32;31.07;;;18.43;;
9007;SDS011;62813;51.424;6.762;2024-01-11T12:58:20;36.20;;;18.57;;
9007;SDS011;62813;51.424;6.762;2024-01-11T13:00:50;28.87;;;17.97;;
9007;SDS011;62813;51.424;6.762;2024-01-11T13:03:21;31.83;;;17.07;;
9007;SDS011;62813;51.424;6.762;2024-01-11T13:05:48;34.13;;;17.70;;
9007;SDS011;62813;51.424;6.762;2024-01-11T13:08:15;32.17;;;16.37;;
9007;SDS011;62813;51.424;6.762;2024-01-11T13:10:46;30.50;;;16.87;;
9007;SDS011;62813;51.424;6.762;2024-01-11T13:13:15;25.47;;;15.50;;
9007;SDS011;62813;51.424;6.762;2024-01-11T13:15:42;30.90;;;17.37;;
9007;SDS011;62813;51.424;6.762;2024-01-11T13:18:09;26.47;;;16.03;;
9007;SDS011;62813;51.424;6.762;2024-01-11T13:20:36;29.63;;;16.10;;
9007;SDS011;62813;51.424;6.762;2024-01-11T13:23:19;25.57;;;16.33;;
9007;SDS011;62813;51.424;6.762;2024-01-11T13:25:48;26.70;;;16.27;;
9007;SDS011;62813;51.424;6.762;2024-01-11T13:28:19;26.93;;;15.40;;
9007;SDS011;62813;51.424;6.762;2024-01-11T13:30:45;21.50;;;14.07;;
9007;SDS011;62813;51.424;6.762;2024-01-11T13:33:13;24.90;;;15.03;;
9007;SDS011;62813;51.424;6.762;2024-01-11T13:35:43;30.47;;;15.33;;
9007;SDS011;62813;51.424;6.762;2024-01-11T13:38:10;28.80;;;15.50;;
9007;SDS011;62813;51.424;6.762;2024-01-11T13:40:37;24.80;;;14.07;;
9007;SDS011;62813;51.424;6.762;2024-01-11T13:43:07;30.70;;;14.60;;
9007;SDS011;62813;51.424;6.762;2024-01-11T13:45:33;25.00;;;12.83;;
9007;SDS011;62813;51.424;6.762;2024-01-11T13:48:03;23.30;;;12.90;;
9007;SDS011;62813;51.424;6.762;2024-01-11T13:50:31;26.10;;;13.80;;
9007;SDS011;62813;51.424;6.762;2024-01-11T13:53:01;20.97;;;13.33;;
9007;SDS011;62813;51.424;6.762;2024-01-11T13:55:28;21.97;;;13.60;;
9007;SDS011;62813;51.424;6.762;2024-01-11T13:58:05;20.67;;;11.97;;
9007;SDS011;62813;51.424;6.762;2024-01-11T14:00:32;24.17;;;11.33;;
9007;SDS011;62813;51.424;6.762;2024-01-11T14:02:59;23.13;;;12.40;;
9007;SDS011;62813;51.424;6.762;2024-01-11T14:05:26;21.70;;;12.43;;
9007;SDS011;62813;51.424;6.762;2024-01-11T14:07:52;20.30;;;12.43;;
9007;SDS011;62813;51.424;6.762;2024-01-11T14:10:25;21.50;;;12.83;;
9007;SDS011;62813;51.424;6.762;2024-01-11T14:12:53;24.60;;;13.93;;
9007;SDS011;62813;51.424;6.762;2024-01-11T14:15:20;23.17;;;14.00;;
9007;SDS011;62813;51.424;6.762;2024-01-11T14:17:47;23.40;;;13.13;;
9007;SDS011;62813;51.424;6.762;2024-01-11T14:20:15;27.17;;;13.97;;
9007;SDS011;62813;51.424;6.762;2024-01-11T14:22:43;22.27;;;13.00;;
9007;SDS011;62813;51.424;6.762;2024-01-11T14:25:16;22.30;;;13.60;;
9007;SDS011;62813;51.424;6.762;2024-01-11T14:27:44;21.87;;;13.17;;
9007;SDS011;62813;51.424;6.762;2024-01-11T14:30:11;26.33;;;14.30;;
9007;SDS011;62813;51.424;6.762;2024-01-11T14:32:39;20.67;;;13.77;;
9007;SDS011;62813;51.424;6.762;2024-01-11T14:35:08;25.70;;;13.73;;
9007;SDS011;62813;51.424;6.762;2024-01-11T14:37:36;25.43;;;13.80;;
9007;SDS011;62813;51.424;6.762;2024-01-11T14:40:04;21.50;;;13.13;;
9007;SDS011;62813;51.424;6.762;2024-01-11T14:42:37;21.50;;;13.27;;
9007;SDS011;62813;51.424;6.762;2024-01-11T14:45:05;25.63;;;13.73;;
9007;SDS011;62813;51.424;6.762;2024-01-11T14:47:35;26.10;;;14.97;;
9007;SDS011;62813;51.424;6.762;2024-01-11T14:50:03;28.80;;;13.13;;